Time;durP1;ratioP1;P1;durP2;ratioP2;P2;SDS_P1;SDS_P2;PMS_P1;PMS_P2;Temp;Humidity;BMP_temperature;BMP_pressure;BME280_temperature;BME280_humidity;BME280_pressure;Samples;Min_cycle;Max_cycle;Signal;HPM_P1;HPM_P2
2022/06/20 00:01:44;;;;;;;15.00;3.53;;;;;;;13.57;85.14;101276.72;4894975;29;20111;-82
2022/06/20 00:04:14;;;;;;;13.18;3.30;;;;;;;13.59;84.96;101273.97;4902858;29;20111;-82
2022/06/20 00:06:40;;;;;;;15.23;3.50;;;;;;;13.49;84.47;101274.69;4914154;29;20474;-82
2022/06/20 00:09:06;;;;;;;14.98;3.38;;;;;;;13.45;85.34;101275.06;4901964;29;20040;-82
2022/06/20 00:11:44;;;;;;;13.00;3.75;;;;;;;13.40;85.68;101272.78;4910404;29;20099;-83
2022/06/20 00:14:14;;;;;;;11.93;3.33;;;;;;;13.35;85.27;101276.75;4910720;29;20511;-82
2022/06/20 00:16:40;;;;;;;17.50;3.53;;;;;;;13.40;84.94;101288.66;4912848;29;20040;-82
2022/06/20 00:19:05;;;;;;;16.17;3.75;;;;;;;13.37;85.12;101290.69;4914068;29;20071;-82
2022/06/20 00:21:31;;;;;;;17.40;3.15;;;;;;;13.40;84.97;101295.75;4913875;29;20388;-83
2022/06/20 00:23:56;;;;;;;13.40;3.25;;;;;;;13.39;84.47;101315.22;4909409;29;20379;-82
2022/06/20 00:26:22;;;;;;;10.88;2.70;;;;;;;13.43;85.09;101338.63;4896786;29;20036;-82
2022/06/20 00:28:48;;;;;;;18.92;4.00;;;;;;;13.35;84.39;101340.19;4909755;29;20027;-82
2022/06/20 00:31:14;;;;;;;11.90;3.40;;;;;;;13.38;84.01;101346.09;4897560;29;20035;-82
2022/06/20 00:33:39;;;;;;;10.60;3.08;;;;;;;13.44;84.64;101345.59;4904525;29;20032;-82
2022/06/20 00:36:05;;;;;;;13.80;3.08;;;;;;;13.46;85.29;101366.63;4894458;29;20074;-82
2022/06/20 00:38:31;;;;;;;14.63;3.47;;;;;;;13.48;85.33;101385.84;4910915;29;20032;-83
2022/06/20 00:41:10;;;;;;;10.95;3.25;;;;;;;13.51;84.63;101401.47;4902247;29;20028;-83
2022/06/20 00:43:40;;;;;;;10.63;3.20;;;;;;;13.56;85.41;101423.09;4906291;29;20028;-83
2022/06/20 00:46:12;;;;;;;11.55;3.22;;;;;;;13.60;85.67;101473.94;4914149;29;20450;-83
2022/06/20 00:48:45;;;;;;;18.55;3.28;;;;;;;13.58;85.62;101484.66;4905631;29;20036;-84
2022/06/20 00:51:26;;;;;;;11.50;2.85;;;;;;;13.61;85.25;101516.19;4909593;29;20028;-84
2022/06/20 00:54:16;;;;;;;13.27;3.08;;;;;;;13.61;85.89;101545.25;4905553;29;20963;-83
2022/06/20 00:57:03;;;;;;;16.10;3.60;;;;;;;13.49;85.22;101532.94;4906417;29;20044;-83
2022/06/20 00:59:33;;;;;;;10.48;2.72;;;;;;;13.47;86.41;101505.78;4913485;29;20039;-83
2022/06/20 01:02:00;;;;;;;13.13;3.97;;;;;;;13.49;86.57;101480.06;4887090;29;20027;-83
2022/06/20 01:04:34;;;;;;;17.33;3.33;;;;;;;13.44;85.96;101463.72;4910891;29;20031;-83
2022/06/20 01:07:03;;;;;;;13.43;3.65;;;;;;;13.47;86.61;101463.47;4914229;29;20447;-83
2022/06/20 01:09:37;;;;;;;12.10;3.28;;;;;;;13.53;86.34;101455.06;4890084;29;20531;-83
2022/06/20 01:12:03;;;;;;;13.75;2.97;;;;;;;13.58;85.70;101442.34;4899782;29;20036;-83
2022/06/20 01:14:41;;;;;;;10.65;3.00;;;;;;;13.54;85.21;101430.31;4905244;29;20395;-83
2022/06/20 01:17:15;;;;;;;11.90;3.17;;;;;;;13.54;85.94;101425.03;4907250;29;20032;-83
2022/06/20 01:19:50;;;;;;;11.13;2.92;;;;;;;13.55;86.02;101413.50;4905562;29;20024;-82
2022/06/20 01:22:32;;;;;;;10.52;3.05;;;;;;;13.53;87.06;101399.56;4896622;29;20032;-83
2022/06/20 01:25:08;;;;;;;10.55;3.00;;;;;;;13.59;87.10;101407.00;4913356;29;20433;-83
2022/06/20 01:27:38;;;;;;;14.65;3.53;;;;;;;13.44;87.29;101382.59;4912465;29;20028;-83
2022/06/20 01:30:04;;;;;;;11.40;3.10;;;;;;;13.36;87.79;101373.59;4904757;29;20063;-83
2022/06/20 01:32:31;;;;;;;12.05;3.60;;;;;;;13.38;87.40;101366.38;4912821;29;20032;-83
2022/06/20 01:34:59;;;;;;;10.68;3.28;;;;;;;13.37;87.92;101380.56;4912174;29;20115;-83
2022/06/20 01:37:28;;;;;;;15.70;3.75;;;;;;;13.29;88.07;101362.66;4905783;29;20081;-82
2022/06/20 01:39:59;;;;;;;15.98;4.07;;;;;;;13.25;87.87;101358.56;4892814;29;20487;-82
2022/06/20 01:42:29;;;;;;;15.05;3.70;;;;;;;13.26;88.61;101367.34;4907668;29;20114;-83
2022/06/20 01:45:05;;;;;;;14.52;3.58;;;;;;;13.28;88.42;101352.22;4913357;29;20060;-83
2022/06/20 01:47:32;;;;;;;9.98;3.30;;;;;;;13.25;89.16;101348.00;4913576;29;20111;-82
2022/06/20 01:50:05;;;;;;;12.55;3.38;;;;;;;13.23;89.02;101352.56;4903881;29;20032;-82
2022/06/20 01:52:35;;;;;;;13.90;3.50;;;;;;;13.17;88.49;101343.28;4908792;29;20032;-81
2022/06/20 01:55:16;;;;;;;12.38;3.55;;;;;;;13.21;88.82;101340.41;4912135;29;20024;-82
2022/06/20 01:57:45;;;;;;;10.75;3.30;;;;;;;13.19;87.65;101351.09;4905997;29;20036;-82
2022/06/20 02:00:17;;;;;;;13.45;3.45;;;;;;;13.19;88.29;101348.44;4906316;29;20047;-82
2022/06/20 02:02:47;;;;;;;;;;;;;;;13.34;86.01;101341.16;4903596;29;20398;-82
2022/06/20 02:05:20;;;;;;;15.43;3.17;;;;;;;13.10;86.90;101328.84;4905322;29;19919;-82
2022/06/20 02:07:46;;;;;;;13.45;3.67;;;;;;;13.05;86.80;101320.41;4906013;29;20382;-82
2022/06/20 02:10:17;;;;;;;16.60;3.08;;;;;;;12.96;87.58;101322.94;4909189;28;20016;-82
2022/06/20 02:12:44;;;;;;;13.57;3.33;;;;;;;12.94;87.36;101314.28;4911892;29;20039;-82
2022/06/20 02:15:15;;;;;;;15.00;3.40;;;;;;;12.94;87.27;101311.66;4910750;29;20055;-82
2022/06/20 02:17:43;;;;;;;16.52;3.72;;;;;;;12.79;87.30;101295.16;4896911;29;20534;-82
2022/06/20 02:20:13;;;;;;;15.77;3.20;;;;;;;12.79;87.86;101300.44;4905262;29;20032;-82
2022/06/20 02:22:39;;;;;;;15.93;3.05;;;;;;;12.85;88.25;101292.06;4897008;29;20558;-82
2022/06/20 02:25:10;;;;;;;11.80;2.88;;;;;;;12.85;87.58;101292.06;4911557;29;20020;-82
2022/06/20 02:27:45;;;;;;;16.98;3.08;;;;;;;12.82;86.81;101279.94;4912833;29;20501;-82
2022/06/20 02:30:12;;;;;;;11.45;2.60;;;;;;;12.77;86.58;101291.78;4911902;29;20043;-82
2022/06/20 02:32:45;;;;;;;11.45;2.95;;;;;;;12.70;86.65;101293.22;4906657;29;20036;-82
2022/06/20 02:35:17;;;;;;;14.35;3.40;;;;;;;12.77;86.66;101294.44;4910848;29;20039;-82
2022/06/20 02:37:44;;;;;;;17.00;3.47;;;;;;;12.76;87.20;101292.75;4912759;29;20035;-82
2022/06/20 02:40:13;;;;;;;10.88;3.00;;;;;;;12.72;86.50;101293.94;4905116;29;20028;-82
2022/06/20 02:42:48;;;;;;;14.82;2.88;;;;;;;12.73;86.21;101295.63;4902349;29;20036;-82
2022/06/20 02:45:15;;;;;;;12.55;3.15;;;;;;;12.71;86.40;101284.34;4898378;29;20386;-82
2022/06/20 02:47:47;;;;;;;15.18;3.38;;;;;;;12.68;85.81;101280.13;4913270;29;20735;-82
2022/06/20 02:50:17;;;;;;;16.55;3.00;;;;;;;12.70;85.76;101285.28;4909298;29;20055;-82
2022/06/20 02:52:51;;;;;;;15.35;2.92;;;;;;;12.61;85.62;101270.16;4898105;29;20028;-82
2022/06/20 02:55:21;;;;;;;15.52;3.10;;;;;;;12.62;84.95;101261.28;4901251;29;20029;-82
2022/06/20 02:57:51;;;;;;;10.85;2.70;;;;;;;12.59;85.93;101250.94;4895936;29;20387;-83
2022/06/20 03:00:25;;;;;;;11.30;3.05;;;;;;;12.55;84.86;101245.91;4902844;29;20110;-82
2022/06/20 03:02:55;;;;;;;12.77;2.90;;;;;;;12.54;84.94;101232.84;4916265;29;20032;-83
2022/06/20 03:05:21;;;;;;;11.02;2.53;;;;;;;12.55;84.67;101239.78;4907063;29;20056;-82
2022/06/20 03:07:49;;;;;;;9.43;3.10;;;;;;;12.48;85.04;101241.22;4904020;29;20096;-82
2022/06/20 03:10:35;;;;;;;11.63;2.85;;;;;;;12.55;85.39;101253.00;4883660;29;20047;-83
2022/06/20 03:13:01;;;;;;;13.88;2.85;;;;;;;12.46;85.66;101253.69;4891700;29;20105;-82
2022/06/20 03:15:28;;;;;;;12.43;2.90;;;;;;;12.48;84.49;101263.16;4899366;29;20048;-84
2022/06/20 03:17:57;;;;;;;10.50;2.67;;;;;;;12.48;84.95;101255.25;4915252;29;20064;-83
2022/06/20 03:20:25;;;;;;;10.02;2.67;;;;;;;12.49;85.64;101262.22;4897388;29;20453;-84
2022/06/20 03:23:18;;;;;;;15.35;2.60;;;;;;;12.60;84.56;101279.03;4892974;29;20179;-84
2022/06/20 03:25:44;;;;;;;;;;;;;;;12.67;83.93;101281.09;4898242;29;20075;-84
2022/06/20 03:28:16;;;;;;;12.50;2.78;;;;;;;12.64;84.94;101285.75;4905418;29;19997;-83
2022/06/20 03:30:41;;;;;;;12.47;2.93;;;;;;;12.65;84.70;101276.88;4898793;29;20031;-84
2022/06/20 03:33:14;;;;;;;12.05;2.67;;;;;;;12.60;84.30;101271.13;4912240;29;20292;-84
2022/06/20 03:35:44;;;;;;;10.88;2.92;;;;;;;12.55;83.94;101282.88;4897731;29;20467;-84
2022/06/20 03:38:12;;;;;;;11.68;2.80;;;;;;;12.60;84.45;101300.16;4913375;29;20032;-84
2022/06/20 03:40:39;;;;;;;14.65;2.67;;;;;;;12.62;84.10;101303.50;4907986;29;20411;-84
2022/06/20 03:43:11;;;;;;;13.25;2.80;;;;;;;12.64;85.00;101312.16;4914650;29;20055;-84
2022/06/20 03:45:40;;;;;;;12.60;2.65;;;;;;;12.70;84.01;101323.09;4905297;29;20395;-83
2022/06/20 03:48:11;;;;;;;9.90;2.33;;;;;;;12.71;84.39;101335.34;4914165;29;20039;-84
2022/06/20 03:50:42;;;;;;;8.75;2.40;;;;;;;12.70;85.10;101327.53;4912574;29;20032;-83
2022/06/20 03:53:16;;;;;;;6.72;2.28;;;;;;;12.78;84.80;101338.34;4906426;29;20413;-84
2022/06/20 03:56:15;;;;;;;11.65;2.78;;;;;;;12.81;85.11;101340.78;4912344;29;20036;-83
2022/06/20 03:58:46;;;;;;;7.00;2.25;;;;;;;12.80;85.09;101337.28;4896169;29;20044;-83
2022/06/20 04:01:24;;;;;;;10.73;2.43;;;;;;;12.88;84.66;101344.66;4904997;29;20032;-83
2022/06/20 04:03:59;;;;;;;7.68;2.00;;;;;;;12.91;85.44;101351.50;4889452;29;20039;-84
2022/06/20 04:06:31;;;;;;;12.50;2.92;;;;;;;12.90;86.05;101350.66;4907990;29;20418;-83
2022/06/20 04:11:57;;;;;;;12.43;3.00;;;;;;;12.94;85.76;101352.09;4906788;29;20094;-83
2022/06/20 04:14:39;;;;;;;12.02;2.80;;;;;;;13.04;85.85;101357.53;4910079;29;20036;-83
2022/06/20 04:20:07;;;;;;;10.02;2.63;;;;;;;13.00;86.45;101366.66;4913019;29;20555;-83
2022/06/20 04:22:35;;;;;;;7.05;2.47;;;;;;;13.05;86.79;101375.06;4909204;29;20036;-84
2022/06/20 04:25:16;;;;;;;9.32;2.53;;;;;;;13.00;86.82;101362.19;4904688;29;20032;-82
2022/06/20 04:27:52;;;;;;;10.52;2.70;;;;;;;13.04;87.61;101363.66;4913161;29;20020;-82
2022/06/20 04:30:37;;;;;;;13.20;3.20;;;;;;;13.10;87.26;101371.09;4911904;29;20039;-83
2022/06/20 04:33:11;;;;;;;13.90;3.35;;;;;;;13.08;87.89;101377.47;4912121;29;20050;-82
2022/06/20 04:35:42;;;;;;;10.70;2.97;;;;;;;13.00;88.45;101371.94;4901893;29;20035;-83
2022/06/20 04:38:27;;;;;;;13.30;3.40;;;;;;;13.08;87.67;101375.66;4907840;29;20376;-82
2022/06/20 04:41:03;;;;;;;12.82;3.20;;;;;;;13.09;88.44;101376.50;4908027;29;20479;-82
2022/06/20 04:43:37;;;;;;;12.23;3.00;;;;;;;13.11;88.72;101382.50;4906732;29;20032;-82
2022/06/20 04:46:33;;;;;;;10.55;3.40;;;;;;;13.12;88.18;101377.13;4914175;29;20028;-82
2022/06/20 04:49:00;;;;;;;12.48;3.15;;;;;;;13.15;88.42;101392.72;4902591;29;20035;-82
2022/06/20 04:51:38;;;;;;;13.90;3.65;;;;;;;13.17;88.96;101396.13;4902618;29;20075;-82
2022/06/20 04:54:05;;;;;;;17.13;3.30;;;;;;;13.22;88.42;101394.97;4908218;29;20079;-83
2022/06/20 04:56:31;;;;;;;11.75;3.53;;;;;;;13.30;88.82;101405.78;4910732;29;20032;-82
2022/06/20 04:59:00;;;;;;;17.13;3.40;;;;;;;13.33;88.42;101402.91;4912790;29;20039;-82
2022/06/20 05:01:31;;;;;;;16.23;3.65;;;;;;;13.39;88.37;101399.78;4896884;29;20032;-83
2022/06/20 05:04:20;;;;;;;8.93;3.38;;;;;;;13.47;88.04;101411.44;4913738;29;20058;-82
2022/06/20 05:06:46;;;;;;;11.57;3.42;;;;;;;13.52;88.18;101399.69;4903868;29;20024;-83
2022/06/20 05:09:44;;;;;;;19.33;4.00;;;;;;;13.59;87.69;101400.88;4906224;29;20171;-82
2022/06/20 05:12:12;;;;;;;11.88;3.50;;;;;;;13.63;87.91;101405.00;4902819;29;20104;-82
2022/06/20 05:14:46;;;;;;;12.88;3.45;;;;;;;13.61;87.28;101401.59;4908861;29;20051;-82
2022/06/20 05:17:25;;;;;;;10.10;3.33;;;;;;;13.62;87.34;101412.09;4881905;29;20451;-82
2022/06/20 05:19:59;;;;;;;9.75;2.83;;;;;;;13.66;87.24;101408.25;4911702;29;20028;-82
2022/06/20 05:22:33;;;;;;;9.93;2.70;;;;;;;13.69;87.11;101415.94;4913510;29;20032;-82
2022/06/20 05:25:07;;;;;;;9.18;2.78;;;;;;;13.72;86.45;101434.19;4906179;29;20435;-83
2022/06/20 05:27:59;;;;;;;13.55;2.90;;;;;;;13.78;85.37;101424.94;4889871;29;20024;-82
2022/06/20 05:30:31;;;;;;;15.80;3.42;;;;;;;13.75;85.41;101426.03;4910752;29;20028;-82
2022/06/20 05:33:05;;;;;;;10.65;2.70;;;;;;;13.77;85.61;101413.53;4910574;29;20050;-82
2022/06/20 05:35:53;;;;;;;11.80;2.95;;;;;;;13.86;85.38;101413.75;4902761;29;20108;-82
2022/06/20 05:38:46;;;;;;;11.70;3.10;;;;;;;13.89;85.27;101418.81;4907311;29;20063;-82
2022/06/20 05:41:16;;;;;;;11.88;3.13;;;;;;;13.80;84.06;101408.00;4906398;29;20042;-81
2022/06/20 05:43:42;;;;;;;10.20;2.80;;;;;;;13.86;84.20;101400.53;4906277;29;20021;-82
2022/06/20 05:46:13;;;;;;;13.00;2.83;;;;;;;13.89;84.20;101406.41;4888771;29;20036;-82
2022/06/20 05:48:51;;;;;;;9.55;2.65;;;;;;;13.97;84.16;101411.09;4909311;29;28097;-81
2022/06/20 05:51:20;;;;;;;9.60;2.83;;;;;;;13.95;85.32;101407.72;4910483;29;20111;-82
2022/06/20 05:53:54;;;;;;;7.22;2.58;;;;;;;13.96;84.36;101412.06;4908601;29;20402;-82
2022/06/20 05:56:43;;;;;;;8.88;2.95;;;;;;;14.06;83.93;101431.56;4909820;29;20032;-82
2022/06/20 05:59:41;;;;;;;9.98;2.92;;;;;;;14.09;83.73;101421.56;4908264;29;20043;-82
2022/06/20 06:02:18;;;;;;;9.73;2.70;;;;;;;14.12;83.88;101431.06;4909834;29;20467;-82
2022/06/20 06:05:13;;;;;;;10.68;2.60;;;;;;;14.23;82.73;101422.25;4908118;29;20043;-82
2022/06/20 06:08:03;;;;;;;11.18;2.45;;;;;;;14.28;82.42;101435.97;4910794;29;20106;-83
2022/06/20 06:10:36;;;;;;;6.82;2.33;;;;;;;14.31;82.03;101427.78;4909251;29;20399;-82
2022/06/20 06:13:33;;;;;;;9.90;2.50;;;;;;;14.38;82.10;101426.31;4908720;29;20032;-82
2022/06/20 06:19:19;;;;;;;11.25;2.55;;;;;;;14.43;81.59;101429.50;4911246;29;20395;-81
2022/06/20 06:21:50;;;;;;;11.70;2.95;;;;;;;14.49;81.18;101423.69;4904992;29;20391;-81
2022/06/20 06:24:23;;;;;;;7.85;2.28;;;;;;;14.58;80.44;101430.03;4904035;29;20039;-81
2022/06/20 06:26:50;;;;;;;;;;;;;;;14.74;81.12;101425.16;4903120;29;20425;-82
2022/06/20 06:29:21;;;;;;;10.68;2.40;;;;;;;14.66;80.53;101433.75;4905950;29;19915;-81
2022/06/20 06:32:04;;;;;;;8.98;2.58;;;;;;;14.74;80.63;101430.47;4903437;29;20047;-81
2022/06/20 06:35:06;;;;;;;9.98;2.72;;;;;;;14.84;78.96;101431.41;4912166;29;20508;-81
2022/06/20 06:37:42;;;;;;;8.93;2.55;;;;;;;14.82;78.49;101421.91;4907499;29;20039;-82
2022/06/20 06:40:16;;;;;;;8.80;2.40;;;;;;;14.90;78.42;101438.00;4909617;29;20099;-82
2022/06/20 06:42:41;;;;;;;7.55;2.40;;;;;;;14.89;76.50;101431.88;4900793;29;20147;-79
2022/06/20 06:45:21;;;;;;;10.00;2.50;;;;;;;14.83;76.97;101439.50;4891027;29;20143;-78
2022/06/20 06:48:21;;;;;;;10.00;2.45;;;;;;;14.95;77.05;101446.41;4911677;29;20039;-78
2022/06/20 06:51:15;;;;;;;12.52;2.67;;;;;;;14.91;76.88;101445.84;4871932;29;20123;-79
2022/06/20 06:54:05;;;;;;;11.60;3.25;;;;;;;14.96;75.69;101451.59;4894852;29;20033;-79
2022/06/20 06:56:45;;;;;;;9.32;2.47;;;;;;;15.10;75.96;101466.34;4907773;29;20035;-77
2022/06/20 06:59:27;;;;;;;13.02;4.47;;;;;;;15.21;75.77;101460.13;4893434;29;20402;-75
2022/06/20 07:01:57;;;;;;;9.25;2.33;;;;;;;15.29;73.52;101452.41;4906244;29;20024;-75
2022/06/20 07:05:07;;;;;;;12.90;2.60;;;;;;;15.39;74.97;101471.88;4909091;29;20191;-75
2022/06/20 07:07:43;;;;;;;10.20;2.50;;;;;;;15.45;74.47;101470.50;4907366;29;20040;-75
2022/06/20 07:10:21;;;;;;;10.43;2.70;;;;;;;15.37;74.38;101468.50;4883989;29;20460;-75
2022/06/20 07:12:51;;;;;;;7.10;2.50;;;;;;;15.33;73.80;101481.19;4906548;29;20028;-75
2022/06/20 07:15:22;;;;;;;8.77;2.40;;;;;;;15.16;72.49;101480.88;4879674;29;20442;-75
2022/06/20 07:17:56;;;;;;;8.23;2.60;;;;;;;15.14;73.17;101488.13;4909832;29;20031;-75
2022/06/20 07:20:30;;;;;;;9.23;2.17;;;;;;;15.02;72.58;101480.22;4908484;29;20030;-75
2022/06/20 07:23:03;;;;;;;9.18;2.47;;;;;;;15.30;72.56;101483.25;4911394;29;20075;-75
2022/06/20 07:25:42;;;;;;;11.05;2.50;;;;;;;15.68;72.14;101489.81;4901553;29;20043;-75
2022/06/20 07:28:34;;;;;;;8.05;2.17;;;;;;;15.90;71.67;101484.34;4907418;29;20309;-75
2022/06/20 07:31:09;;;;;;;8.05;2.33;;;;;;;16.15;69.92;101481.25;4905323;29;20051;-75
2022/06/20 07:33:47;;;;;;;9.82;2.80;;;;;;;16.41;69.13;101478.09;4907655;29;20454;-75
2022/06/20 07:36:20;;;;;;;9.20;2.47;;;;;;;16.75;68.49;101474.16;4900584;29;20527;-75
2022/06/20 07:39:01;;;;;;;9.77;2.30;;;;;;;16.91;66.50;101478.94;4904973;29;20402;-75
2022/06/20 07:41:48;;;;;;;10.95;2.50;;;;;;;17.06;67.13;101482.00;4910087;29;20039;-75
2022/06/20 07:44:25;;;;;;;9.27;2.33;;;;;;;17.17;65.10;101480.03;4906115;29;20029;-75
2022/06/20 07:46:58;;;;;;;7.70;2.15;;;;;;;17.03;64.31;101482.28;4908466;29;20450;-75
2022/06/20 07:49:37;;;;;;;6.43;2.53;;;;;;;16.85;63.82;101480.34;4917101;29;20020;-75
2022/06/20 07:52:31;;;;;;;4.88;1.73;;;;;;;17.12;63.52;101497.41;4898454;29;20060;-75
2022/06/20 07:55:05;;;;;;;7.70;1.88;;;;;;;17.55;61.46;101484.47;4909850;29;20087;-75
2022/06/20 07:57:40;;;;;;;5.40;1.90;;;;;;;17.80;61.31;101487.56;4906799;29;20032;-74
2022/06/20 08:00:19;;;;;;;7.15;2.17;;;;;;;18.17;60.53;101490.22;4911394;29;20062;-74
2022/06/20 08:03:20;;;;;;;5.38;1.92;;;;;;;18.09;61.18;101493.63;4880770;29;20032;-74
2022/06/20 08:06:00;;;;;;;5.13;1.80;;;;;;;18.02;59.17;101497.88;4872977;29;20050;-74
2022/06/20 08:08:40;;;;;;;7.75;2.53;;;;;;;17.96;60.24;101498.41;4911406;29;20040;-74
2022/06/20 08:11:47;;;;;;;9.15;2.78;;;;;;;17.81;62.62;101497.22;4912011;29;20032;-74
2022/06/20 08:15:11;;;;;;;10.52;2.30;;;;;;;17.55;62.26;101500.44;4886729;29;20638;-74
2022/06/20 08:17:40;;;;;;;8.38;2.40;;;;;;;17.19;61.14;101498.53;4855990;29;20044;-74
2022/06/20 08:20:09;;;;;;;9.80;2.47;;;;;;;17.09;63.01;101508.31;4856126;29;20041;-74
2022/06/20 08:22:47;;;;;;;6.20;2.38;;;;;;;17.04;62.78;101499.94;4881193;29;20071;-74
2022/06/20 08:25:23;;;;;;;5.88;2.15;;;;;;;16.79;61.88;101504.78;4900782;29;20034;-74
2022/06/20 08:27:57;;;;;;;7.50;2.42;;;;;;;16.75;62.90;101511.34;4913140;29;20032;-74
2022/06/20 08:30:34;;;;;;;5.95;2.40;;;;;;;16.71;61.81;101507.28;4908614;29;20039;-74
2022/06/20 08:33:09;;;;;;;7.80;2.45;;;;;;;17.00;61.36;101503.84;4896995;29;20023;-75
2022/06/20 08:35:41;;;;;;;6.95;2.72;;;;;;;17.51;58.95;101501.72;4905971;29;20024;-74
2022/06/20 08:38:16;;;;;;;7.32;2.47;;;;;;;17.76;56.04;101499.47;4895745;29;20396;-74
2022/06/20 08:41:14;;;;;;;7.32;2.45;;;;;;;18.01;57.99;101512.16;4899290;29;20112;-74
2022/06/20 08:44:06;;;;;;;6.78;2.83;;;;;;;17.76;58.06;101512.78;4912411;29;20023;-74
2022/06/20 08:46:50;;;;;;;5.50;2.47;;;;;;;17.60;57.68;101516.00;4910501;29;20055;-74
2022/06/20 08:49:18;;;;;;;9.85;2.40;;;;;;;17.53;58.21;101518.38;4899767;29;20039;-76
2022/06/20 08:52:41;;;;;;;6.05;2.35;;;;;;;17.69;59.93;101527.66;4912482;29;20078;-75
2022/06/20 08:55:12;;;;;;;10.60;2.78;;;;;;;17.46;57.95;101527.06;4874837;29;20052;-75
2022/06/20 08:58:16;;;;;;;7.97;2.38;;;;;;;17.77;58.93;101530.44;4895625;29;20036;-75
2022/06/20 09:00:52;;;;;;;10.00;2.35;;;;;;;17.98;58.76;101528.41;4897915;29;20029;-75
2022/06/20 09:03:42;;;;;;;6.18;2.55;;;;;;;18.16;55.38;101537.34;4906258;29;20368;-79
2022/06/20 09:06:45;;;;;;;6.32;2.42;;;;;;;18.38;54.78;101545.94;4895750;29;20044;-75
2022/06/20 09:09:42;;;;;;;7.47;2.42;;;;;;;18.73;54.45;101530.06;4895763;29;20024;-76
2022/06/20 09:12:41;;;;;;;5.07;2.15;;;;;;;19.01;53.73;101546.03;4898947;29;20388;-78
2022/06/20 09:15:15;;;;;;;6.97;2.33;;;;;;;18.67;52.79;101544.00;4910858;29;20063;-76
2022/06/20 09:18:05;;;;;;;8.80;2.55;;;;;;;18.49;53.56;101548.41;4903234;29;20039;-76
2022/06/20 09:20:33;;;;;;;5.60;2.30;;;;;;;18.33;53.65;101549.03;4896964;29;20028;-76
2022/06/20 09:23:05;;;;;;;10.52;2.45;;;;;;;18.25;54.73;101550.75;4902728;29;20032;-74
2022/06/20 09:25:37;;;;;;;7.22;2.65;;;;;;;18.15;54.92;101550.78;4896298;29;20038;-74
2022/06/20 09:28:13;;;;;;;6.97;2.55;;;;;;;18.24;54.48;101554.41;4894322;29;20028;-74
2022/06/20 09:30:45;;;;;;;6.25;2.20;;;;;;;18.48;53.42;101552.91;4882937;29;20132;-74
2022/06/20 09:33:39;;;;;;;4.45;2.13;;;;;;;18.78;50.23;101549.13;4900611;29;20439;-75
2022/06/20 09:36:34;;;;;;;5.55;2.20;;;;;;;19.08;48.57;101549.78;4896707;29;20107;-74
2022/06/20 09:39:15;;;;;;;5.18;2.05;;;;;;;19.16;50.23;101547.19;4896318;29;20111;-74
2022/06/20 09:41:58;;;;;;;5.93;1.85;;;;;;;19.19;49.69;101546.88;4894058;29;20463;-74
2022/06/20 09:44:46;;;;;;;;;;;;;;;19.34;49.36;101540.03;4896719;29;20036;-74
2022/06/20 09:47:48;;;;;;;6.13;2.00;;;;;;;19.68;49.89;101548.19;4911139;29;20029;-75
2022/06/20 09:50:35;;;;;;;7.07;2.67;;;;;;;19.93;48.54;101543.81;4862487;29;20044;-76
2022/06/20 09:53:29;;;;;;;7.40;2.75;;;;;;;20.02;47.47;101540.25;4906149;29;20020;-76
2022/06/20 09:56:10;;;;;;;8.55;2.40;;;;;;;20.18;47.52;101538.66;4879015;29;20108;-77
2022/06/20 09:59:09;;;;;;;8.20;2.85;;;;;;;20.40;48.77;101532.75;4894823;29;20444;-75
2022/06/20 10:01:45;;;;;;;7.50;2.80;;;;;;;20.37;47.28;101534.88;4875779;29;20048;-75
2022/06/20 10:04:28;;;;;;;9.15;3.10;;;;;;;20.32;47.79;101543.38;4902002;29;20028;-75
2022/06/20 10:07:05;;;;;;;7.15;2.85;;;;;;;20.29;47.21;101538.34;4893273;29;20416;-76
2022/06/20 10:09:58;;;;;;;7.55;2.97;;;;;;;20.40;48.66;101532.75;4901077;29;20028;-76
2022/06/20 10:12:46;;;;;;;11.20;3.33;;;;;;;20.45;46.90;101540.31;4902972;29;20063;-77
2022/06/20 10:15:37;;;;;;;9.00;2.63;;;;;;;20.40;49.24;101538.09;4895333;29;20053;-77
2022/06/20 10:18:09;;;;;;;8.48;2.78;;;;;;;20.48;48.78;101546.19;4900770;29;20028;-75
2022/06/20 10:20:50;;;;;;;8.35;3.28;;;;;;;20.69;47.32;101548.41;4896623;29;20020;-75
2022/06/20 10:23:24;;;;;;;7.18;2.95;;;;;;;20.82;48.59;101546.13;4898269;29;20034;-74
2022/06/20 10:25:57;;;;;;;8.98;3.55;;;;;;;20.60;48.59;101560.09;4897249;29;20030;-75
2022/06/20 10:28:43;;;;;;;;;;;;;;;20.75;50.08;101545.09;4900011;29;20025;-75
2022/06/20 10:31:31;;;;;;;13.60;3.55;;;;;;;20.46;50.30;101561.53;4907233;29;20369;-75
2022/06/20 10:34:10;;;;;;;8.15;3.22;;;;;;;20.49;48.69;101563.06;4895076;29;20064;-75
2022/06/20 10:37:00;;;;;;;8.90;3.45;;;;;;;20.60;49.20;101566.28;4899357;29;20474;-75
2022/06/20 10:39:44;;;;;;;9.48;3.13;;;;;;;20.78;47.77;101562.66;4882034;29;20033;-75
2022/06/20 10:42:19;;;;;;;9.80;3.00;;;;;;;21.03;44.31;101567.06;4896297;29;20040;-75
2022/06/20 10:45:12;;;;;;;5.97;2.70;;;;;;;21.13;46.74;101561.56;4907414;29;20030;-77
2022/06/20 10:48:12;;;;;;;7.45;3.00;;;;;;;20.96;46.06;101566.06;4910592;29;20087;-76
2022/06/20 10:50:48;;;;;;;8.35;2.97;;;;;;;20.88;45.79;101569.56;4893993;29;20239;-76
2022/06/20 10:53:29;;;;;;;8.85;3.75;;;;;;;20.91;46.26;101582.59;4900941;29;20028;-76
2022/06/20 10:56:05;;;;;;;10.18;4.05;;;;;;;20.59;45.75;101580.63;4899304;29;20390;-76
2022/06/20 10:58:39;;;;;;;6.68;3.17;;;;;;;20.51;45.03;101580.63;4887854;29;20415;-78
2022/06/20 11:01:43;;;;;;;9.23;2.92;;;;;;;20.59;44.16;101580.63;4896002;29;20391;-75
2022/06/20 11:04:30;;;;;;;11.32;2.95;;;;;;;21.00;46.37;101580.78;4826154;29;20072;-76
2022/06/20 11:06:55;;;;;;;9.98;3.35;;;;;;;21.18;44.68;101581.47;4893699;29;20459;-75
2022/06/20 11:09:44;;;;;;;8.18;2.75;;;;;;;21.22;47.08;101587.38;4894197;29;20028;-76
2022/06/20 11:12:31;;;;;;;14.80;3.00;;;;;;;20.94;45.73;101586.78;4901402;29;20042;-79
2022/06/20 11:15:18;;;;;;;10.68;3.15;;;;;;;20.92;46.68;101600.34;4901097;29;20041;-76
2022/06/20 11:18:17;;;;;;;8.65;2.53;;;;;;;20.93;47.12;101604.69;4900805;29;20043;-75
2022/06/20 11:20:54;;;;;;;6.80;2.80;;;;;;;21.36;45.35;101601.97;4884526;29;20062;-75
2022/06/20 11:44:06;;;;;;;12.13;3.72;;;;;;;22.14;43.72;101594.28;4911233;29;20070;-83
2022/06/20 11:46:54;;;;;;;6.85;2.80;;;;;;;22.22;43.93;101580.00;4888601;29;20036;-83
2022/06/20 11:50:03;;;;;;;8.15;3.38;;;;;;;22.24;44.63;101584.19;4898183;29;20044;-77
2022/06/20 11:53:10;;;;;;;10.35;2.78;;;;;;;22.39;43.54;101579.78;4903241;29;20099;-75
2022/06/20 11:56:17;;;;;;;7.57;2.45;;;;;;;22.78;43.00;101578.94;4877430;29;20487;-75
2022/06/20 11:59:22;;;;;;;8.40;2.15;;;;;;;23.21;41.69;101588.28;4901682;29;20407;-74
2022/06/20 12:02:25;;;;;;;5.45;2.20;;;;;;;23.42;40.25;101582.28;4899745;29;20165;-78
2022/06/20 12:04:59;;;;;;;;;;;;;;;23.51;42.38;101575.81;4893159;29;20458;-76
2022/06/20 12:07:57;;;;;;;8.32;2.13;;;;;;;22.95;40.73;101582.44;4906115;29;19962;-75
2022/06/20 12:11:05;;;;;;;9.35;2.63;;;;;;;22.68;42.95;101586.38;4914421;29;20088;-78
2022/06/20 12:13:59;;;;;;;6.88;1.98;;;;;;;22.78;39.65;101589.69;4877128;29;20044;-76
2022/06/20 12:16:42;;;;;;;9.13;2.20;;;;;;;23.23;41.57;101580.09;4908057;29;20052;-76
2022/06/20 12:24:57;;;;;;;7.95;2.30;;;;;;;22.83;39.71;101576.63;4896881;29;20508;-76
2022/06/20 12:27:23;;;;;;;4.80;2.15;;;;;;;22.44;40.45;101569.41;4902906;29;20031;-76
2022/06/20 12:29:49;;;;;;;6.40;2.63;;;;;;;22.59;39.58;101569.50;4909236;29;20329;-78
2022/06/20 12:32:31;;;;;;;6.82;2.30;;;;;;;22.56;39.29;101569.84;4899710;29;20036;-76
2022/06/20 12:35:15;;;;;;;5.97;1.90;;;;;;;23.14;40.18;101572.06;4914063;29;20072;-75
2022/06/20 12:37:59;;;;;;;7.90;2.35;;;;;;;23.46;40.45;101564.78;4888644;29;20024;-76
2022/06/20 12:40:36;;;;;;;8.18;2.33;;;;;;;23.48;38.86;101578.88;4906415;29;20059;-75
2022/06/20 12:43:16;;;;;;;8.93;2.30;;;;;;;23.66;40.70;101574.06;4879458;29;20598;-76
2022/06/20 12:46:10;;;;;;;8.82;2.25;;;;;;;23.62;40.02;101578.13;4881089;29;20109;-76
2022/06/20 12:48:50;;;;;;;7.97;2.45;;;;;;;23.90;38.54;101564.09;4901089;29;20095;-76